createdAt,value
2019-01-08T00:01:22.639Z,3.30
2019-01-08T00:03:52.271Z,3.30
2019-01-08T00:06:21.917Z,3.30
2019-01-08T00:08:51.568Z,3.30
2019-01-08T00:11:21.185Z,3.30
2019-01-08T00:13:50.853Z,3.30
2019-01-08T00:16:20.578Z,3.30
2019-01-08T00:18:50.267Z,3.30
2019-01-08T00:21:19.953Z,3.30
2019-01-08T00:23:49.591Z,3.40
2019-01-08T00:26:19.217Z,3.40
2019-01-08T00:28:48.891Z,3.40
2019-01-08T00:31:18.507Z,3.40
2019-01-08T00:33:48.154Z,3.50
2019-01-08T00:36:17.930Z,3.70
2019-01-08T00:38:47.635Z,3.90
2019-01-08T00:41:17.269Z,4.00
2019-01-08T00:43:46.912Z,4.20
2019-01-08T00:46:16.540Z,4.20
2019-01-08T00:48:46.170Z,4.30
2019-01-08T00:51:15.900Z,4.30
2019-01-08T00:53:45.489Z,4.40
2019-01-08T00:56:15.149Z,4.40
2019-01-08T00:58:51.446Z,4.40
2019-01-08T01:01:14.448Z,4.40
2019-01-08T01:03:45.424Z,4.40
2019-01-08T01:06:15.226Z,4.50
2019-01-08T01:08:45.231Z,4.50
2019-01-08T01:11:15.286Z,4.50
2019-01-08T01:13:46.748Z,4.50
2019-01-08T01:16:16.843Z,4.40
2019-01-08T01:18:46.962Z,4.40
2019-01-08T01:21:17.078Z,4.40
2019-01-08T01:23:47.169Z,4.40
2019-01-08T01:26:17.208Z,4.40
2019-01-08T01:28:47.256Z,4.40
2019-01-08T01:31:18.076Z,4.30
2019-01-08T01:33:48.941Z,4.30
2019-01-08T01:36:19.774Z,4.20
2019-01-08T01:38:49.425Z,4.20
2019-01-08T01:41:19.156Z,4.10
2019-01-08T01:43:48.806Z,4.10
2019-01-08T01:46:18.426Z,4.10
2019-01-08T01:48:48.043Z,4.10
2019-01-08T01:51:17.677Z,4.10
2019-01-08T01:53:47.303Z,4.10
2019-01-08T01:56:18.319Z,4.10
2019-01-08T01:58:47.902Z,4.10
2019-01-08T02:01:17.533Z,4.10
2019-01-08T02:03:47.180Z,4.10
2019-01-08T02:06:16.855Z,4.10
2019-01-08T02:08:46.466Z,4.10
2019-01-08T02:11:16.081Z,4.00
2019-01-08T02:13:45.751Z,4.00
2019-01-08T02:16:15.387Z,4.00
2019-01-08T02:18:45.001Z,4.10
2019-01-08T02:21:14.650Z,4.10
2019-01-08T02:23:44.345Z,4.10
2019-01-08T02:26:15.495Z,4.10
2019-01-08T02:28:43.647Z,4.10
2019-01-08T02:31:13.266Z,4.00
2019-01-08T02:33:42.924Z,4.00
2019-01-08T02:36:12.528Z,4.00
2019-01-08T02:38:42.181Z,4.00
2019-01-08T02:41:11.888Z,4.00
2019-01-08T02:43:41.465Z,3.90
2019-01-08T02:46:11.226Z,3.90
2019-01-08T02:48:40.757Z,3.90
2019-01-08T02:51:10.409Z,3.90
2019-01-08T02:53:40.176Z,3.90
2019-01-08T02:56:09.823Z,3.90
2019-01-08T02:58:39.490Z,3.90
2019-01-08T03:01:09.112Z,3.90
2019-01-08T03:03:38.778Z,3.90
2019-01-08T03:06:08.430Z,3.90
2019-01-08T03:08:38.059Z,3.90
2019-01-08T03:11:07.708Z,3.80
2019-01-08T03:13:37.377Z,3.80
2019-01-08T03:16:06.990Z,3.80
2019-01-08T03:18:36.594Z,3.80
2019-01-08T03:21:06.226Z,3.80
2019-01-08T03:23:35.847Z,3.80
2019-01-08T03:26:05.552Z,3.80
2019-01-08T03:28:35.214Z,3.80
2019-01-08T03:31:04.849Z,3.80
2019-01-08T03:33:34.473Z,3.80
2019-01-08T03:36:04.118Z,3.80
2019-01-08T03:38:33.772Z,3.80
2019-01-08T03:41:03.436Z,3.80
2019-01-08T03:43:33.054Z,3.80
2019-01-08T03:46:02.818Z,3.90
2019-01-08T03:48:32.440Z,3.80
2019-01-08T03:51:03.316Z,3.80
2019-01-08T03:53:33.329Z,3.80
2019-01-08T03:56:02.655Z,3.80
2019-01-08T03:58:32.297Z,3.80
2019-01-08T04:01:01.913Z,3.80
2019-01-08T04:03:31.582Z,3.80
2019-01-08T04:06:01.215Z,3.80
2019-01-08T04:08:30.821Z,3.80
2019-01-08T04:11:00.445Z,3.80
2019-01-08T04:13:30.103Z,3.80
2019-01-08T04:16:00.357Z,3.80
2019-01-08T04:18:29.388Z,3.80
2019-01-08T04:20:58.977Z,3.80
2019-01-08T04:23:29.530Z,3.80
2019-01-08T04:25:58.316Z,3.90
2019-01-08T04:28:28.074Z,3.90
2019-01-08T04:30:57.741Z,3.90
2019-01-08T04:33:27.358Z,3.90
2019-01-08T04:35:56.984Z,3.90
2019-01-08T04:38:26.677Z,3.90
2019-01-08T04:40:56.316Z,3.90
2019-01-08T04:43:25.954Z,3.90
2019-01-08T04:45:55.613Z,4.00
2019-01-08T04:48:25.256Z,3.90
2019-01-08T04:50:54.864Z,3.90
2019-01-08T04:53:24.536Z,3.90
2019-01-08T04:55:54.150Z,3.90
2019-01-08T04:58:23.778Z,4.00
2019-01-08T05:00:53.406Z,4.00
2019-01-08T05:03:23.089Z,4.10
2019-01-08T05:05:53.632Z,4.10
2019-01-08T05:08:22.403Z,4.10
2019-01-08T05:10:52.021Z,4.10
2019-01-08T05:13:22.894Z,4.10
2019-01-08T05:15:52.606Z,4.10
2019-01-08T05:18:22.227Z,4.10
2019-01-08T05:20:52.398Z,4.10
2019-01-08T05:23:22.048Z,4.10
2019-01-08T05:25:51.721Z,4.10
2019-01-08T05:28:22.768Z,4.00
2019-01-08T05:30:52.425Z,4.10
2019-01-08T05:33:22.036Z,4.00
2019-01-08T05:35:51.680Z,4.00
2019-01-08T05:38:22.529Z,4.10
2019-01-08T05:40:52.160Z,4.10
2019-01-08T05:43:23.135Z,4.10
2019-01-08T05:45:52.855Z,4.10
2019-01-08T05:48:22.496Z,4.10
2019-01-08T05:50:52.145Z,4.10
2019-01-08T05:53:21.786Z,4.10
2019-01-08T05:55:51.413Z,4.10
2019-01-08T05:58:21.034Z,4.10
2019-01-08T06:00:50.742Z,4.10
2019-01-08T06:03:20.412Z,4.10
2019-01-08T06:05:50.210Z,4.10
2019-01-08T06:08:19.860Z,4.20
2019-01-08T06:10:49.433Z,4.20
2019-01-08T06:13:19.128Z,4.20
2019-01-08T06:15:48.773Z,4.20
2019-01-08T06:18:18.425Z,4.20
2019-01-08T06:20:48.064Z,4.30
2019-01-08T06:23:17.820Z,4.30
2019-01-08T06:25:47.457Z,4.30
2019-01-08T06:28:17.094Z,4.30
2019-01-08T06:30:46.925Z,4.40
2019-01-08T06:33:16.553Z,4.40
2019-01-08T06:35:46.161Z,4.40
2019-01-08T06:38:16.065Z,4.40
2019-01-08T06:40:45.687Z,4.40
2019-01-08T06:43:15.326Z,4.50
2019-01-08T06:45:46.183Z,4.40
2019-01-08T06:48:15.787Z,4.50
2019-01-08T06:50:45.458Z,4.50
2019-01-08T06:53:15.093Z,4.50
2019-01-08T06:55:45.890Z,4.50
2019-01-08T06:58:17.944Z,4.50
2019-01-08T07:00:47.548Z,4.50
2019-01-08T07:03:17.185Z,4.60
2019-01-08T07:05:46.831Z,4.60
2019-01-08T07:08:16.464Z,4.60
2019-01-08T07:10:46.106Z,4.60
2019-01-08T07:13:15.760Z,4.60
2019-01-08T07:15:45.378Z,4.60
2019-01-08T07:18:15.009Z,4.60
2019-01-08T07:20:44.687Z,4.70
2019-01-08T07:23:14.306Z,4.70
2019-01-08T07:25:46.400Z,4.70
2019-01-08T07:28:17.203Z,4.80
2019-01-08T07:30:46.809Z,4.70
2019-01-08T07:33:16.481Z,4.70
2019-01-08T07:35:46.117Z,4.80
2019-01-08T07:38:15.812Z,4.80
2019-01-08T07:40:45.425Z,4.80
2019-01-08T07:43:15.055Z,4.80
2019-01-08T07:45:44.719Z,4.80
2019-01-08T07:48:14.350Z,4.90
2019-01-08T07:50:45.276Z,4.90
2019-01-08T07:53:14.925Z,4.90
2019-01-08T07:55:44.552Z,4.90
2019-01-08T07:58:14.215Z,4.90
2019-01-08T08:00:50.134Z,4.90
2019-01-08T08:03:16.082Z,4.90
2019-01-08T08:05:46.973Z,5.00
2019-01-08T08:08:18.220Z,5.00
2019-01-08T08:10:47.879Z,5.00
2019-01-08T08:13:17.506Z,5.10
2019-01-08T08:15:48.471Z,5.10
2019-01-08T08:18:18.089Z,5.10
2019-01-08T08:20:47.790Z,5.10
2019-01-08T08:23:19.845Z,5.20
2019-01-08T08:25:49.540Z,5.20
2019-01-08T08:28:19.157Z,5.20
2019-01-08T08:30:58.595Z,5.20
2019-01-08T08:33:22.254Z,5.20
2019-01-08T08:35:51.943Z,5.20
2019-01-08T08:38:21.567Z,5.20
2019-01-08T08:40:51.210Z,5.30
2019-01-08T08:43:22.083Z,5.30
2019-01-08T08:45:51.710Z,5.30
2019-01-08T08:48:21.335Z,5.40
2019-01-08T08:50:50.977Z,5.40
2019-01-08T08:53:20.584Z,5.40
2019-01-08T08:55:50.240Z,5.50
2019-01-08T08:58:19.858Z,5.50
2019-01-08T09:00:49.470Z,5.50
2019-01-08T09:03:20.429Z,5.60
2019-01-08T09:05:52.391Z,5.60
2019-01-08T09:08:22.012Z,5.70
2019-01-08T09:10:51.625Z,5.70
2019-01-08T09:13:22.533Z,5.70
2019-01-08T09:15:52.178Z,5.70
2019-01-08T09:18:21.832Z,5.70
2019-01-08T09:20:51.521Z,5.70
2019-01-08T09:23:21.147Z,5.70
2019-01-08T09:25:52.117Z,5.70
2019-01-08T09:28:21.804Z,5.70
2019-01-08T09:30:51.470Z,5.80
2019-01-08T09:33:22.366Z,5.70
2019-01-08T09:35:52.713Z,5.70
2019-01-08T09:38:22.333Z,5.70
2019-01-08T09:40:52.012Z,5.80
2019-01-08T09:43:21.620Z,5.80
2019-01-08T09:45:51.237Z,5.90
2019-01-08T09:48:22.081Z,6.10
2019-01-08T09:50:52.033Z,6.30
2019-01-08T09:53:22.944Z,6.50
2019-01-08T09:55:52.563Z,6.60
2019-01-08T09:58:22.197Z,6.60
2019-01-08T10:00:53.058Z,6.60
2019-01-08T10:03:22.665Z,6.70
2019-01-08T10:05:52.317Z,6.80
2019-01-08T10:08:21.965Z,7.00
2019-01-08T10:10:51.603Z,7.20
2019-01-08T10:13:21.253Z,7.30
2019-01-08T10:15:50.896Z,7.40
2019-01-08T10:18:20.529Z,7.50
2019-01-08T10:20:50.829Z,7.50
2019-01-08T10:23:20.518Z,7.50
2019-01-08T10:25:50.133Z,7.60
2019-01-08T10:28:19.789Z,7.60
2019-01-08T10:30:49.479Z,7.70
2019-01-08T10:33:19.166Z,7.80
2019-01-08T10:35:50.128Z,7.90
2019-01-08T10:38:19.744Z,7.90
2019-01-08T10:40:49.394Z,7.90
2019-01-08T10:43:19.045Z,7.90
2019-01-08T10:45:48.670Z,7.90
2019-01-08T10:48:18.329Z,7.90
2019-01-08T10:50:47.976Z,7.90
2019-01-08T10:53:17.606Z,7.90
2019-01-08T10:55:47.270Z,8.00
2019-01-08T10:58:16.919Z,8.20
2019-01-08T11:00:46.557Z,8.40
2019-01-08T11:03:16.169Z,8.60
2019-01-08T11:05:45.810Z,9.00
2019-01-08T11:08:15.437Z,9.40
2019-01-08T11:10:47.597Z,10.00
2019-01-08T11:13:17.224Z,10.30
2019-01-08T11:15:46.861Z,10.60
2019-01-08T11:18:18.471Z,10.80
2019-01-08T11:20:48.096Z,11.00
2019-01-08T11:23:17.732Z,10.90
2019-01-08T11:25:47.418Z,10.50
2019-01-08T11:28:17.065Z,10.10
2019-01-08T11:30:46.784Z,9.70
2019-01-08T11:33:16.449Z,9.40
2019-01-08T11:35:46.128Z,9.20
2019-01-08T11:38:15.741Z,9.00
2019-01-08T11:40:45.353Z,8.80
2019-01-08T11:43:14.990Z,8.60
2019-01-08T11:45:44.701Z,8.40
2019-01-08T11:48:14.333Z,8.20
2019-01-08T11:50:43.961Z,8.10
2019-01-08T11:53:13.630Z,8.00
2019-01-08T11:55:43.285Z,8.00
2019-01-08T11:58:13.054Z,7.90
2019-01-08T12:00:42.677Z,7.90
2019-01-08T12:03:12.314Z,7.70
2019-01-08T12:05:42.347Z,7.60
2019-01-08T12:08:11.980Z,7.40
2019-01-08T12:10:42.466Z,7.30
2019-01-08T12:13:12.693Z,7.10
2019-01-08T12:15:42.333Z,7.00
2019-01-08T12:18:11.949Z,7.00
2019-01-08T12:20:41.590Z,6.90
2019-01-08T12:23:11.213Z,6.90
2019-01-08T12:25:40.870Z,6.90
2019-01-08T12:28:10.496Z,6.90
2019-01-08T12:30:40.147Z,7.00
2019-01-08T12:33:09.754Z,7.00
2019-01-08T12:35:39.378Z,7.00
2019-01-08T12:38:09.016Z,6.90
2019-01-08T12:40:38.657Z,6.90
2019-01-08T12:43:08.354Z,6.80
2019-01-08T12:45:38.076Z,6.70
2019-01-08T12:48:07.932Z,6.60
2019-01-08T12:50:37.549Z,6.60
2019-01-08T12:53:08.923Z,6.50
2019-01-08T12:55:38.570Z,6.50
2019-01-08T12:58:08.213Z,6.50
2019-01-08T13:00:37.891Z,6.50
2019-01-08T13:03:08.827Z,6.40
2019-01-08T13:05:38.460Z,6.40
2019-01-08T13:08:08.127Z,6.40
2019-01-08T13:10:39.089Z,6.40
2019-01-08T13:13:08.697Z,6.50
2019-01-08T13:15:40.841Z,6.50
2019-01-08T13:18:10.461Z,6.40
2019-01-08T13:20:40.090Z,6.40
2019-01-08T13:23:12.243Z,6.40
2019-01-08T13:25:41.935Z,6.40
2019-01-08T13:28:12.769Z,6.40
2019-01-08T13:30:42.395Z,6.40
2019-01-08T13:33:12.058Z,6.40
2019-01-08T13:35:41.699Z,6.30
2019-01-08T13:38:11.357Z,6.30
2019-01-08T13:40:41.021Z,6.30
2019-01-08T13:43:11.865Z,6.30
2019-01-08T13:45:43.187Z,6.30
2019-01-08T13:48:11.245Z,6.30
2019-01-08T13:50:41.112Z,6.30
2019-01-08T13:53:10.866Z,6.40
2019-01-08T13:55:40.809Z,6.40
2019-01-08T13:58:10.507Z,6.40
2019-01-08T14:00:40.180Z,6.40
2019-01-08T14:03:09.870Z,6.40
2019-01-08T14:05:39.494Z,6.40
2019-01-08T14:08:10.304Z,6.40
2019-01-08T14:10:40.988Z,6.40
2019-01-08T14:13:10.618Z,6.40
2019-01-08T14:15:40.221Z,6.40
2019-01-08T14:18:09.934Z,6.40
2019-01-08T14:20:39.697Z,6.40
2019-01-08T14:23:09.425Z,6.30
2019-01-08T14:25:40.485Z,6.30
2019-01-08T14:28:10.097Z,6.30
2019-01-08T14:30:39.803Z,6.30
2019-01-08T14:33:09.481Z,6.30
2019-01-08T14:35:39.133Z,6.30
2019-01-08T14:38:08.785Z,6.20
2019-01-08T14:40:38.490Z,6.20
2019-01-08T14:43:13.854Z,6.20
2019-01-08T14:45:39.112Z,6.20
2019-01-08T14:48:08.898Z,6.10
2019-01-08T14:50:38.605Z,6.10
2019-01-08T14:53:08.326Z,6.10
2019-01-08T14:55:38.006Z,6.10
2019-01-08T14:58:07.747Z,6.10
2019-01-08T15:00:37.371Z,6.10
2019-01-08T15:03:08.317Z,6.10
2019-01-08T15:05:37.971Z,6.10
2019-01-08T15:08:07.672Z,6.10
2019-01-08T15:10:38.606Z,6.10
2019-01-08T15:13:08.354Z,6.10
2019-01-08T15:15:37.964Z,6.10
2019-01-08T15:18:10.026Z,6.10
2019-01-08T15:20:39.673Z,6.10
2019-01-08T15:23:09.530Z,6.10
2019-01-08T15:25:40.502Z,6.10
2019-01-08T15:28:10.162Z,6.10
2019-01-08T15:30:39.836Z,6.00
2019-01-08T15:33:09.818Z,6.00
2019-01-08T15:35:39.523Z,6.00
2019-01-08T15:38:09.140Z,6.00
2019-01-08T15:40:38.778Z,5.90
2019-01-08T15:43:09.627Z,5.90
2019-01-08T15:45:39.256Z,5.90
2019-01-08T15:48:08.877Z,5.90
2019-01-08T15:50:38.502Z,5.90
2019-01-08T15:53:09.457Z,5.80
2019-01-08T15:55:39.113Z,5.90
2019-01-08T15:58:08.861Z,5.80
2019-01-08T16:00:39.798Z,5.80
2019-01-08T16:03:09.479Z,5.90
2019-01-08T16:05:40.349Z,5.90
2019-01-08T16:08:10.066Z,5.90
2019-01-08T16:10:39.839Z,5.80
2019-01-08T16:13:11.219Z,5.90
2019-01-08T16:15:40.828Z,5.90
2019-01-08T16:18:10.859Z,5.90
2019-01-08T16:20:40.660Z,5.90
2019-01-08T16:23:10.691Z,6.00
2019-01-08T16:25:42.757Z,6.00
2019-01-08T16:28:12.533Z,5.90
2019-01-08T16:30:43.469Z,6.00
2019-01-08T16:33:16.176Z,6.00
2019-01-08T16:35:43.448Z,5.90
2019-01-08T16:43:15.319Z,5.90
2019-01-08T16:45:45.778Z,5.90
2019-01-08T16:48:15.856Z,5.90
2019-01-08T16:50:45.626Z,5.90
2019-01-08T16:53:17.073Z,5.90
2019-01-08T16:55:47.238Z,5.90
2019-01-08T16:58:16.927Z,5.90
2019-01-08T17:00:46.670Z,5.80
2019-01-08T17:03:24.504Z,5.80
2019-01-08T17:05:46.120Z,5.80
2019-01-08T17:08:18.457Z,5.80
2019-01-08T17:10:48.178Z,5.80
2019-01-08T17:13:17.870Z,5.80
2019-01-08T17:15:47.680Z,5.80
2019-01-08T17:18:17.398Z,5.80
2019-01-08T17:20:47.026Z,5.80
2019-01-08T17:23:18.053Z,5.80
2019-01-08T17:25:48.287Z,5.80
2019-01-08T17:28:17.413Z,5.80
2019-01-08T17:30:47.178Z,5.80
2019-01-08T17:33:16.938Z,5.80
2019-01-08T17:35:46.892Z,5.80
2019-01-08T17:38:16.696Z,5.70
2019-01-08T17:40:47.794Z,5.80
2019-01-08T17:43:17.621Z,5.70
2019-01-08T17:45:47.425Z,5.70
2019-01-08T17:48:19.613Z,5.70
2019-01-08T17:50:49.308Z,5.70
2019-01-08T17:53:18.958Z,5.70
2019-01-08T17:55:49.904Z,5.70
2019-01-08T17:59:00.514Z,5.70
2019-01-08T18:01:33.674Z,5.60
2019-01-08T18:04:04.568Z,5.60
2019-01-08T18:06:34.285Z,5.60
2019-01-08T18:09:04.596Z,5.60
2019-01-08T18:11:34.261Z,5.60
2019-01-08T18:14:04.159Z,5.60
2019-01-08T18:16:33.966Z,5.60
2019-01-08T18:19:05.941Z,5.50
2019-01-08T18:21:36.882Z,5.50
2019-01-08T18:24:06.517Z,5.50
2019-01-08T18:26:36.376Z,5.50
2019-01-08T18:29:07.331Z,5.50
2019-01-08T18:31:37.001Z,5.50
2019-01-08T18:34:06.663Z,5.50
2019-01-08T18:36:37.613Z,5.50
2019-01-08T18:39:07.808Z,5.50
2019-01-08T18:41:37.638Z,5.50
2019-01-08T18:44:07.718Z,5.50
2019-01-08T18:46:37.526Z,5.50
2019-01-08T18:49:07.917Z,5.50
2019-01-08T18:51:38.205Z,5.50
2019-01-08T18:54:07.910Z,5.50
2019-01-08T18:56:37.634Z,5.50
2019-01-08T18:59:07.458Z,5.50
2019-01-08T19:01:37.200Z,5.50
2019-01-08T19:04:06.887Z,5.50
2019-01-08T19:06:36.888Z,5.50
2019-01-08T19:09:18.031Z,5.50
2019-01-08T19:11:47.783Z,5.50
2019-01-08T19:14:18.004Z,5.50
2019-01-08T19:16:47.697Z,5.60
2019-01-08T19:19:17.483Z,5.60
2019-01-08T19:21:50.621Z,5.60
2019-01-08T19:24:18.195Z,5.60
2019-01-08T19:26:47.905Z,5.70
2019-01-08T19:29:17.587Z,5.70
2019-01-08T19:31:48.515Z,5.80
2019-01-08T19:34:18.184Z,5.80
2019-01-08T19:36:47.832Z,5.80
2019-01-08T19:39:17.471Z,5.90
2019-01-08T19:41:47.129Z,5.90
2019-01-08T19:44:18.190Z,6.00
2019-01-08T19:46:47.825Z,6.00
2019-01-08T19:49:17.585Z,6.00
2019-01-08T19:51:47.258Z,6.00
2019-01-08T19:54:16.930Z,6.00
2019-01-08T19:56:49.085Z,6.00
2019-01-08T19:59:18.739Z,5.90
2019-01-08T20:01:48.986Z,5.90
2019-01-08T20:04:18.745Z,5.90
2019-01-08T20:06:48.389Z,5.90
2019-01-08T20:09:25.249Z,5.90
2019-01-08T20:11:47.754Z,5.90
2019-01-08T20:14:18.435Z,5.90
2019-01-08T20:16:48.087Z,5.90
2019-01-08T20:19:19.034Z,5.90
2019-01-08T20:21:48.826Z,5.90
2019-01-08T20:24:19.799Z,5.80
2019-01-08T20:26:49.580Z,5.80
2019-01-08T20:29:19.371Z,5.70
2019-01-08T20:31:49.053Z,5.70
2019-01-08T20:34:26.211Z,5.70
2019-01-08T20:36:51.712Z,5.70
2019-01-08T20:39:21.655Z,5.70
2019-01-08T20:41:51.249Z,5.70
2019-01-08T20:44:20.942Z,5.70
2019-01-08T20:46:55.697Z,5.80
2019-01-08T20:49:25.483Z,5.80
2019-01-08T20:51:55.256Z,5.80
2019-01-08T20:54:25.208Z,5.90
2019-01-08T20:56:58.722Z,5.90
2019-01-08T20:59:29.555Z,5.90
2019-01-08T21:01:59.734Z,5.90
2019-01-08T21:04:35.279Z,5.90
2019-01-08T21:07:00.842Z,5.90
2019-01-08T21:09:34.124Z,5.90
2019-01-08T21:12:05.125Z,5.90
2019-01-08T21:14:34.885Z,5.90
2019-01-08T21:17:04.561Z,5.90
2019-01-08T21:19:34.359Z,5.80
2019-01-08T21:22:04.102Z,5.90
2019-01-08T21:24:33.917Z,5.90
2019-01-08T21:27:06.294Z,5.90
2019-01-08T21:29:35.964Z,5.80
2019-01-08T21:32:05.606Z,5.80
2019-01-08T21:34:44.020Z,5.70
2019-01-08T21:37:05.552Z,5.70
2019-01-08T21:39:37.079Z,5.70
2019-01-08T21:42:14.786Z,5.70
2019-01-08T21:44:44.449Z,5.70
2019-01-08T21:47:15.305Z,5.70
2019-01-08T21:49:45.235Z,5.70
2019-01-08T21:52:14.948Z,5.60
2019-01-08T21:54:44.603Z,5.60
2019-01-08T21:57:14.348Z,5.60
2019-01-08T21:59:44.020Z,5.50
2019-01-08T22:02:13.976Z,5.50
2019-01-08T22:04:43.713Z,5.60
2019-01-08T22:07:13.362Z,5.60
2019-01-08T22:09:43.021Z,5.60
2019-01-08T22:12:13.908Z,5.50
2019-01-08T22:14:43.606Z,5.50
2019-01-08T22:17:14.179Z,5.50
2019-01-08T22:19:44.814Z,5.50
2019-01-08T22:22:17.110Z,5.50
2019-01-08T22:24:49.193Z,5.50
2019-01-08T22:27:18.850Z,5.50
2019-01-08T22:29:48.509Z,5.50
2019-01-08T22:32:18.987Z,5.50
2019-01-08T22:34:48.648Z,5.50
2019-01-08T22:37:18.327Z,5.50
2019-01-08T22:39:48.053Z,5.50
2019-01-08T22:42:17.696Z,5.40
2019-01-08T22:44:47.341Z,5.40
2019-01-08T22:47:19.356Z,5.40
2019-01-08T22:49:51.825Z,5.30
2019-01-08T22:52:21.506Z,5.30
2019-01-08T22:54:51.190Z,5.40
2019-01-08T22:57:22.286Z,5.40
2019-01-08T22:59:51.925Z,5.30
2019-01-08T23:04:57.670Z,5.30
2019-01-08T23:07:27.328Z,5.40
2019-01-08T23:09:57.045Z,5.30
2019-01-08T23:12:26.759Z,5.30
2019-01-08T23:14:56.396Z,5.30
2019-01-08T23:17:26.083Z,5.40
2019-01-08T23:19:55.756Z,5.40
2019-01-08T23:22:25.449Z,5.40
2019-01-08T23:24:55.104Z,5.50
2019-01-08T23:27:24.744Z,5.50
2019-01-08T23:29:55.706Z,5.50
2019-01-08T23:32:26.633Z,5.50
2019-01-08T23:34:56.273Z,5.50
2019-01-08T23:37:25.954Z,5.40
2019-01-08T23:39:55.658Z,5.40
2019-01-08T23:42:25.317Z,5.30
2019-01-08T23:44:54.970Z,5.30
2019-01-08T23:47:24.641Z,5.20
2019-01-08T23:49:54.351Z,5.20
2019-01-08T23:52:32.126Z,5.20
2019-01-08T23:55:02.184Z,5.10
2019-01-08T23:57:32.057Z,5.10
